KTVL Airport Information

Runway Information
Runway 18 Length 8544 ft width 150 ft
Elevation 6251 ft Threshold 0 ft Heading 193
Runway 36 Length 8544 ft Width 150 ft
Elevation 6259 ft Threshold 2037 ft Heading 13
Airport Frequencies
Type ASOS Name ASOS Frequency 124.725 MHZ
Type CNTR Name OAKLAND CN Frequency 127.95 MHZ
Type CTAF Name CTAF Frequency 122.95 MHZ
Type RDO Name RENO RDO Frequency 122.25 MHZ
Type UNIC Name UNICOM Frequency 122.95 MHZ
Airport Navaids
Airport Weather Information & NOTAM
ADDS - METARS form results

(0948 UTC 23 July 2018)
 
METAR text: KTVL 230853Z AUTO 00000KT 7SM CLR 11/11 A3040 RMK AO2 SLP232 T01110111 58006 $
Conditions at: KTVL (SOUTH LAKE TAHOE, CA, US) observed 0853 UTC 23 July 2018
Temperature: 11.1°C (52°F)
Dewpoint: 11.1°C (52°F) [RH = 100%]
Pressure (altimeter): 30.40 inches Hg (1029.5 mb)
[Sea-level pressure: 1023.2 mb]
Winds: calm
Visibility: 7 miles (11 km)
Ceiling: at least 12,000 feet AGL
Clouds: sky clear below 12,000 feet AGL
Weather:
SOME DATA ABOVE MAY BE INACCURATE!!!
"$" is an indication the sensor requires maintenance